createdAt,value
2022-11-22T00:01:19.193Z,31.20
2022-11-22T00:03:47.195Z,37.42
2022-11-22T00:06:15.684Z,32.90
2022-11-22T00:08:45.043Z,34.28
2022-11-22T00:11:12.960Z,35.78
2022-11-22T00:13:40.949Z,39.08
2022-11-22T00:16:08.858Z,36.63
2022-11-22T00:18:39.374Z,36.97
2022-11-22T00:21:08.113Z,38.63
2022-11-22T00:23:36.212Z,39.22
2022-11-22T00:26:06.990Z,37.92
2022-11-22T00:28:34.985Z,36.28
2022-11-22T00:31:04.179Z,35.83
2022-11-22T00:33:32.162Z,40.40
2022-11-22T00:36:00.270Z,36.70
2022-11-22T00:38:28.212Z,40.60
2022-11-22T00:40:56.114Z,43.38
2022-11-22T00:43:25.507Z,39.03
2022-11-22T00:45:56.098Z,41.38
2022-11-22T00:48:24.157Z,39.92
2022-11-22T00:50:52.180Z,37.28
2022-11-22T00:53:21.893Z,41.17
2022-11-22T00:55:49.927Z,39.70
2022-11-22T00:58:18.100Z,50.85
2022-11-22T01:00:49.162Z,52.58
2022-11-22T01:03:20.217Z,36.83
2022-11-22T01:05:48.139Z,52.33
2022-11-22T01:08:16.091Z,44.53
2022-11-22T01:10:45.475Z,50.22
2022-11-22T01:13:13.588Z,48.22
2022-11-22T01:15:41.771Z,41.28
2022-11-22T01:18:11.119Z,45.10
2022-11-22T01:20:41.123Z,44.75
2022-11-22T01:23:09.129Z,44.35
2022-11-22T01:25:39.480Z,43.58
2022-11-22T01:28:07.444Z,42.35
2022-11-22T01:30:35.365Z,46.95
2022-11-22T01:33:03.293Z,44.53
2022-11-22T01:35:32.583Z,44.28
2022-11-22T01:38:00.465Z,40.65
2022-11-22T01:40:31.532Z,39.67
2022-11-22T01:43:01.234Z,43.60
2022-11-22T01:45:47.568Z,51.83
2022-11-22T01:48:38.907Z,46.42
2022-11-22T01:51:18.099Z,35.38
2022-11-22T01:53:46.491Z,43.20
2022-11-22T01:56:17.799Z,39.10
2022-11-22T01:58:49.609Z,35.67
2022-11-22T02:01:20.698Z,40.15
2022-11-22T02:03:52.804Z,38.90
2022-11-22T02:06:22.632Z,50.88
2022-11-22T02:08:58.554Z,44.67
2022-11-22T02:11:34.123Z,46.10
2022-11-22T02:14:03.970Z,35.20
2022-11-22T02:16:32.698Z,40.70
2022-11-22T02:19:00.699Z,44.20
2022-11-22T02:21:30.546Z,37.47
2022-11-22T02:24:08.072Z,38.20
2022-11-22T02:26:37.482Z,40.22
2022-11-22T02:29:08.765Z,32.35
2022-11-22T02:31:39.938Z,37.35
2022-11-22T02:34:08.366Z,36.13
2022-11-22T02:36:40.712Z,33.10
2022-11-22T02:39:10.804Z,37.28
2022-11-22T02:41:43.459Z,39.22
2022-11-22T02:44:13.079Z,37.97
2022-11-22T02:46:50.791Z,34.65
2022-11-22T02:49:20.489Z,35.33
2022-11-22T02:51:49.213Z,40.45
2022-11-22T02:54:17.436Z,36.50
2022-11-22T02:56:46.911Z,40.67
2022-11-22T02:59:15.075Z,40.03
2022-11-22T03:01:44.895Z,43.17
2022-11-22T03:04:24.537Z,38.20
2022-11-22T03:06:55.544Z,35.83
2022-11-22T03:09:23.735Z,37.95
2022-11-22T03:11:54.273Z,39.30
2022-11-22T03:14:23.757Z,45.35
2022-11-22T03:16:52.398Z,44.83
2022-11-22T03:19:20.567Z,41.35
2022-11-22T03:21:48.578Z,48.45
2022-11-22T03:24:16.619Z,49.67
2022-11-22T03:26:48.519Z,48.80
2022-11-22T03:29:18.683Z,47.70
2022-11-22T03:31:46.680Z,45.95
2022-11-22T03:34:15.599Z,47.83
2022-11-22T03:36:43.740Z,49.20
2022-11-22T03:39:11.729Z,44.90
2022-11-22T03:41:39.804Z,44.13
2022-11-22T03:44:07.945Z,44.60
2022-11-22T03:46:37.417Z,42.25
2022-11-22T03:49:05.407Z,40.45
2022-11-22T03:51:33.498Z,39.72
2022-11-22T03:54:01.541Z,41.45
2022-11-22T03:56:38.842Z,43.38
2022-11-22T03:59:06.928Z,45.22
2022-11-22T04:01:34.966Z,45.72
2022-11-22T04:04:06.215Z,48.17
2022-11-22T04:06:34.644Z,45.88
2022-11-22T04:09:02.630Z,49.25
2022-11-22T04:11:30.586Z,40.70
2022-11-22T04:14:16.345Z,40.60
2022-11-22T04:16:47.147Z,45.00
2022-11-22T04:19:16.523Z,51.97
2022-11-22T04:21:43.476Z,50.22
2022-11-22T04:24:30.422Z,40.90
2022-11-22T04:26:59.191Z,39.55
2022-11-22T04:29:27.373Z,39.25
2022-11-22T04:32:13.436Z,40.45
2022-11-22T04:34:42.829Z,43.80
2022-11-22T04:37:13.191Z,47.88
2022-11-22T04:39:41.186Z,42.33
2022-11-22T04:42:27.856Z,46.80
2022-11-22T04:44:56.460Z,39.83
2022-11-22T04:47:46.057Z,42.45
2022-11-22T04:50:34.675Z,37.65
2022-11-22T04:53:02.649Z,47.33
2022-11-22T04:55:30.681Z,44.95
2022-11-22T04:58:00.161Z,42.30
2022-11-22T05:00:29.049Z,43.97
2022-11-22T05:02:57.118Z,37.17
2022-11-22T05:05:29.559Z,39.33
2022-11-22T05:07:59.760Z,40.72
2022-11-22T05:10:27.899Z,38.60
2022-11-22T05:12:56.280Z,41.47
2022-11-22T05:15:24.238Z,38.22
2022-11-22T05:17:52.258Z,35.72
2022-11-22T05:20:22.131Z,39.83
2022-11-22T05:23:08.841Z,34.47
2022-11-22T05:25:36.905Z,39.97
2022-11-22T05:28:04.873Z,36.70
2022-11-22T05:30:32.831Z,40.53
2022-11-22T05:33:01.079Z,43.58
2022-11-22T05:35:29.275Z,39.88
2022-11-22T05:37:58.789Z,39.80
2022-11-22T05:40:28.000Z,36.97
2022-11-22T05:42:56.249Z,40.35
2022-11-22T05:45:24.290Z,40.90
2022-11-22T05:47:52.327Z,33.50
2022-11-22T05:50:23.464Z,41.22
2022-11-22T05:52:55.700Z,45.55
2022-11-22T05:55:25.028Z,39.22
2022-11-22T05:57:53.145Z,34.17
2022-11-22T06:00:21.467Z,37.83
2022-11-22T06:02:49.482Z,47.58
2022-11-22T06:05:17.538Z,37.92
2022-11-22T06:07:46.373Z,43.53
2022-11-22T06:10:14.449Z,38.50
2022-11-22T06:12:43.697Z,37.50
2022-11-22T06:15:12.252Z,32.45
2022-11-22T06:17:40.281Z,36.08
2022-11-22T06:20:09.872Z,31.60
2022-11-22T06:22:37.911Z,32.15
2022-11-22T06:25:06.980Z,41.50
2022-11-22T06:27:34.929Z,36.00
2022-11-22T06:30:05.395Z,33.30
2022-11-22T06:32:34.890Z,37.38
2022-11-22T06:35:03.780Z,29.67
2022-11-22T06:37:31.931Z,35.67
2022-11-22T06:39:59.986Z,33.75
2022-11-22T06:42:27.945Z,34.40
2022-11-22T06:44:55.937Z,31.83
2022-11-22T06:47:25.215Z,32.20
2022-11-22T06:49:53.202Z,28.55
2022-11-22T06:52:21.112Z,25.45
2022-11-22T06:54:49.035Z,32.75
2022-11-22T06:57:20.318Z,31.30
2022-11-22T06:59:48.289Z,32.05
2022-11-22T07:02:16.244Z,32.17
2022-11-22T07:05:09.442Z,29.95
2022-11-22T07:07:33.676Z,34.35
2022-11-22T07:10:01.680Z,33.85
2022-11-22T07:12:29.530Z,26.63
2022-11-22T07:14:57.707Z,28.52
2022-11-22T07:17:25.651Z,28.38
2022-11-22T07:19:55.008Z,28.92
2022-11-22T07:22:23.264Z,29.85
2022-11-22T07:24:51.353Z,32.10
2022-11-22T07:27:19.342Z,27.33
2022-11-22T07:29:47.289Z,30.08
2022-11-22T07:32:15.319Z,28.35
2022-11-22T07:34:43.252Z,24.77
2022-11-22T07:37:15.236Z,25.83
2022-11-22T07:39:44.563Z,24.27
2022-11-22T07:42:13.034Z,29.42
2022-11-22T07:44:41.230Z,22.90
2022-11-22T07:47:09.167Z,23.13
2022-11-22T07:49:37.298Z,23.55
2022-11-22T07:52:07.349Z,20.58
2022-11-22T07:54:36.688Z,28.10
2022-11-22T07:57:04.898Z,21.90
2022-11-22T07:59:33.011Z,23.10
2022-11-22T08:02:01.045Z,25.15
2022-11-22T08:04:29.115Z,21.40
2022-11-22T08:06:58.279Z,27.92
2022-11-22T08:09:26.383Z,23.50
2022-11-22T08:11:56.859Z,19.42
2022-11-22T08:14:24.996Z,21.50
2022-11-22T08:16:56.245Z,21.88
2022-11-22T08:19:24.223Z,20.00
2022-11-22T08:21:57.067Z,20.90
2022-11-22T08:24:26.551Z,19.70
2022-11-22T08:26:55.862Z,19.00
2022-11-22T08:29:23.943Z,22.30
2022-11-22T08:31:54.937Z,23.95
2022-11-22T08:34:23.245Z,28.83
2022-11-22T08:36:51.317Z,22.73
2022-11-22T08:39:19.410Z,24.10
2022-11-22T08:41:47.416Z,19.08
2022-11-22T08:44:16.846Z,21.00
2022-11-22T08:46:44.849Z,18.65
2022-11-22T08:49:14.215Z,19.35
2022-11-22T08:51:44.869Z,21.15
2022-11-22T08:54:13.070Z,27.67
2022-11-22T08:56:41.139Z,19.88
2022-11-22T08:59:09.247Z,22.05
2022-11-22T09:01:38.719Z,18.48
2022-11-22T09:04:06.959Z,15.65
2022-11-22T09:09:37.320Z,16.95
2022-11-22T09:12:06.711Z,16.30
2022-11-22T09:14:34.798Z,13.00
2022-11-22T09:17:05.784Z,28.63
2022-11-22T09:19:36.588Z,16.27
2022-11-22T09:22:04.740Z,17.92
2022-11-22T09:24:32.913Z,13.70
2022-11-22T09:27:01.026Z,14.80
2022-11-22T09:29:29.763Z,12.90
2022-11-22T09:31:57.888Z,13.88
2022-11-22T09:34:27.254Z,11.43
2022-11-22T09:36:55.237Z,13.50
2022-11-22T09:39:23.300Z,10.93
2022-11-22T09:42:08.130Z,12.23
2022-11-22T09:44:53.489Z,12.88
2022-11-22T09:47:36.888Z,13.95
2022-11-22T09:50:19.401Z,15.02
2022-11-22T09:52:52.190Z,13.43
2022-11-22T09:55:26.402Z,15.35
2022-11-22T09:58:05.594Z,17.40
2022-11-22T10:00:34.170Z,13.30
2022-11-22T10:03:11.527Z,13.57
2022-11-22T10:05:50.416Z,11.48
2022-11-22T10:08:33.565Z,10.85
2022-11-22T10:11:04.883Z,9.40
2022-11-22T10:13:38.616Z,10.32
2022-11-22T10:16:15.196Z,10.48
2022-11-22T10:18:49.174Z,13.80
2022-11-22T10:21:20.171Z,18.10
2022-11-22T10:23:49.252Z,8.80
2022-11-22T10:26:24.907Z,9.07
2022-11-22T10:29:04.391Z,7.40
2022-11-22T10:31:40.330Z,8.68
2022-11-22T10:34:16.496Z,7.90
2022-11-22T10:36:50.482Z,7.78
2022-11-22T10:39:37.177Z,14.55
2022-11-22T10:42:22.323Z,9.82
2022-11-22T10:44:59.898Z,9.13
2022-11-22T10:47:42.107Z,10.02
2022-11-22T10:50:17.553Z,9.70
2022-11-22T10:52:59.012Z,10.07
2022-11-22T10:55:42.786Z,10.20
2022-11-22T10:58:22.001Z,7.80
2022-11-22T11:00:56.496Z,8.18
2022-11-22T11:03:32.875Z,9.75
2022-11-22T11:06:24.480Z,11.38
2022-11-22T11:09:55.019Z,6.32
2022-11-22T11:11:53.137Z,10.35
2022-11-22T11:14:28.747Z,9.70
2022-11-22T11:16:57.573Z,10.13
2022-11-22T11:19:28.968Z,7.32
2022-11-22T11:22:00.765Z,6.32
2022-11-22T11:24:32.531Z,6.20
2022-11-22T11:27:01.561Z,8.85
2022-11-22T11:29:47.811Z,5.80
2022-11-22T11:32:19.830Z,9.43
2022-11-22T11:34:54.799Z,6.78
2022-11-22T11:37:26.181Z,7.32
2022-11-22T11:39:57.186Z,7.60
2022-11-22T11:42:28.971Z,8.85
2022-11-22T11:45:21.776Z,9.82
2022-11-22T11:47:49.854Z,7.55
2022-11-22T11:50:23.951Z,7.28
2022-11-22T11:52:57.209Z,9.43
2022-11-22T11:55:31.672Z,6.07
2022-11-22T11:58:00.028Z,6.95
2022-11-22T12:00:36.250Z,11.00
2022-11-22T12:03:09.759Z,9.00
2022-11-22T12:08:29.433Z,6.75
2022-11-22T12:11:02.846Z,8.13
2022-11-22T12:13:57.608Z,8.77
2022-11-22T12:16:29.829Z,9.45
2022-11-22T12:19:05.955Z,6.28
2022-11-22T12:21:40.196Z,6.70
2022-11-22T12:27:12.133Z,8.52
2022-11-22T12:29:43.635Z,6.40
2022-11-22T12:32:18.840Z,7.13
2022-11-22T12:34:54.910Z,6.65
2022-11-22T12:37:29.287Z,7.07
2022-11-22T12:40:02.535Z,8.00
2022-11-22T12:42:40.303Z,5.82
2022-11-22T12:45:17.997Z,9.70
2022-11-22T12:47:51.313Z,6.82
2022-11-22T12:50:27.849Z,5.97
2022-11-22T12:53:00.354Z,6.90
2022-11-22T12:55:31.764Z,8.10
2022-11-22T12:58:16.070Z,10.95
2022-11-22T13:00:58.277Z,6.05
2022-11-22T13:03:32.975Z,7.22
2022-11-22T13:06:04.595Z,6.78
2022-11-22T13:08:39.025Z,6.10
2022-11-22T13:11:15.606Z,7.18
2022-11-22T13:13:47.456Z,9.55
2022-11-22T13:16:15.933Z,7.20
2022-11-22T13:18:49.163Z,5.85
2022-11-22T13:21:23.316Z,9.00
2022-11-22T13:24:10.096Z,7.78
2022-11-22T13:26:47.367Z,9.80
2022-11-22T13:29:23.733Z,13.55
2022-11-22T13:32:03.145Z,4.35
2022-11-22T13:34:32.072Z,7.60
2022-11-22T13:37:09.091Z,9.75
2022-11-22T13:39:43.465Z,4.82
2022-11-22T13:42:18.144Z,5.75
2022-11-22T13:45:20.512Z,12.70
2022-11-22T13:47:49.183Z,13.27
2022-11-22T13:50:56.679Z,6.13
2022-11-22T13:53:29.982Z,7.15
2022-11-22T13:56:00.263Z,5.40
2022-11-22T13:58:57.669Z,6.07
2022-11-22T14:01:58.103Z,5.88
2022-11-22T14:04:50.212Z,7.75
2022-11-22T14:07:36.001Z,12.23
2022-11-22T14:10:24.285Z,5.88
2022-11-22T14:13:06.253Z,8.85
2022-11-22T14:16:03.704Z,7.53
2022-11-22T14:18:52.695Z,5.88
2022-11-22T14:21:41.502Z,5.72
2022-11-22T14:24:20.435Z,6.45
2022-11-22T14:26:58.460Z,7.68
2022-11-22T14:29:56.326Z,8.23
2022-11-22T14:32:27.599Z,6.90
2022-11-22T14:35:31.407Z,7.13
2022-11-22T14:38:28.560Z,7.00
2022-11-22T14:41:30.890Z,7.68
2022-11-22T14:44:01.667Z,6.22
2022-11-22T14:46:53.551Z,5.55
2022-11-22T14:49:31.793Z,9.10
2022-11-22T14:52:01.548Z,8.25
2022-11-22T14:54:36.316Z,8.70
2022-11-22T14:57:08.500Z,8.32
2022-11-22T15:00:09.157Z,6.05
2022-11-22T15:03:08.898Z,6.25
2022-11-22T15:09:11.859Z,6.90
2022-11-22T15:09:21.646Z,4.45
2022-11-22T15:12:15.282Z,5.43
2022-11-22T15:59:10.800Z,9.07
2022-11-22T16:01:41.202Z,10.88
2022-11-22T16:04:21.598Z,12.48
2022-11-22T16:06:50.662Z,12.73
2022-11-22T16:09:27.915Z,8.38
2022-11-22T16:12:01.478Z,12.20
2022-11-22T16:14:49.484Z,8.77
2022-11-22T16:17:29.356Z,9.60
2022-11-22T16:20:32.982Z,12.15
2022-11-22T16:23:19.896Z,10.68
2022-11-22T16:25:49.866Z,11.88
2022-11-22T16:28:36.511Z,13.40
2022-11-22T16:31:17.053Z,14.05
2022-11-22T16:33:45.454Z,14.30
2022-11-22T16:36:15.044Z,14.38
2022-11-22T16:38:44.031Z,16.42
2022-11-22T16:41:18.329Z,14.60
2022-11-22T16:43:46.703Z,13.00
2022-11-22T16:46:17.378Z,15.98
2022-11-22T16:48:45.616Z,14.02
2022-11-22T16:51:15.963Z,12.40
2022-11-22T16:53:47.006Z,13.50
2022-11-22T16:56:20.336Z,12.27
2022-11-22T16:58:49.412Z,10.45
2022-11-22T17:01:21.906Z,11.60
2022-11-22T17:04:01.612Z,11.27
2022-11-22T17:06:31.661Z,10.00
2022-11-22T17:09:04.648Z,12.35
2022-11-22T17:11:33.470Z,11.38
2022-11-22T17:14:04.271Z,9.88
2022-11-22T17:16:33.604Z,11.88
2022-11-22T17:19:01.689Z,8.98
2022-11-22T17:21:37.048Z,9.70
2022-11-22T17:24:07.621Z,11.25
2022-11-22T17:26:35.729Z,9.25
2022-11-22T17:29:03.812Z,13.07
2022-11-22T17:31:33.190Z,12.38
2022-11-22T17:34:01.229Z,10.55
2022-11-22T17:36:30.873Z,8.85
2022-11-22T17:39:00.602Z,10.55
2022-11-22T17:41:30.360Z,11.27
2022-11-22T17:43:59.045Z,14.43
2022-11-22T17:46:27.807Z,11.25
2022-11-22T17:48:59.699Z,8.55
2022-11-22T17:51:28.606Z,12.45
2022-11-22T17:53:58.219Z,9.60
2022-11-22T17:56:27.057Z,10.15
2022-11-22T17:58:54.962Z,10.40
2022-11-22T18:01:24.027Z,8.20
2022-11-22T18:03:52.446Z,12.80
2022-11-22T18:06:22.609Z,9.13
2022-11-22T18:08:50.854Z,10.27
2022-11-22T18:11:19.141Z,7.75
2022-11-22T18:13:47.299Z,9.38
2022-11-22T18:16:17.317Z,9.23
2022-11-22T18:18:56.732Z,7.32
2022-11-22T18:21:29.080Z,10.15
2022-11-22T18:23:57.723Z,8.57
2022-11-22T18:26:41.882Z,10.48
2022-11-22T18:32:02.320Z,9.93
2022-11-22T18:34:31.045Z,9.23
2022-11-22T18:37:03.495Z,8.95
2022-11-22T18:39:34.254Z,10.35
2022-11-22T18:42:02.615Z,12.32
2022-11-22T18:44:30.719Z,24.70
2022-11-22T18:46:58.810Z,15.73
2022-11-22T18:49:27.001Z,28.92
2022-11-22T18:51:55.647Z,22.88
2022-11-22T18:54:25.361Z,37.13
2022-11-22T18:56:53.846Z,24.63
2022-11-22T18:59:21.813Z,53.30
2022-11-22T19:01:49.985Z,23.00
2022-11-22T19:04:18.832Z,13.80
2022-11-22T19:06:46.927Z,10.25
2022-11-22T19:09:15.124Z,11.40
2022-11-22T19:11:44.464Z,14.23
2022-11-22T19:14:12.611Z,12.15
2022-11-22T19:16:40.585Z,9.73
2022-11-22T19:19:11.852Z,15.85
2022-11-22T19:21:39.952Z,12.75
2022-11-22T19:24:08.023Z,9.20
2022-11-22T19:26:36.025Z,12.30
2022-11-22T19:29:05.368Z,13.77
2022-11-22T19:31:33.789Z,12.40
2022-11-22T19:34:01.806Z,10.50
2022-11-22T19:36:33.847Z,8.93
2022-11-22T19:39:04.460Z,11.18
2022-11-22T19:41:33.181Z,10.35
2022-11-22T19:44:01.535Z,10.40
2022-11-22T19:46:31.445Z,7.20
2022-11-22T19:49:01.056Z,9.02
2022-11-22T19:51:30.915Z,10.00
2022-11-22T19:54:02.153Z,12.00
2022-11-22T19:56:33.173Z,11.25
2022-11-22T19:59:02.736Z,11.57
2022-11-22T20:01:33.729Z,13.13
2022-11-22T20:04:03.632Z,9.50
2022-11-22T20:06:32.567Z,9.75
2022-11-22T20:09:01.872Z,8.35
2022-11-22T20:11:29.890Z,10.82
2022-11-22T20:13:58.004Z,13.18
2022-11-22T20:16:27.923Z,8.30
2022-11-22T20:18:58.389Z,9.15
2022-11-22T20:21:27.685Z,7.20
2022-11-22T20:23:56.684Z,9.73
2022-11-22T20:26:25.477Z,8.45
2022-11-22T20:28:58.145Z,9.82
2022-11-22T20:31:27.527Z,8.80
2022-11-22T20:34:01.382Z,11.40
2022-11-22T20:36:30.947Z,8.00
2022-11-22T20:39:00.408Z,8.75
2022-11-22T20:41:31.382Z,6.70
2022-11-22T20:43:59.398Z,9.45
2022-11-22T20:46:29.110Z,11.20
2022-11-22T20:48:59.190Z,8.80
2022-11-22T20:51:28.676Z,7.15
2022-11-22T20:53:57.413Z,9.70
2022-11-22T20:56:26.147Z,10.48
2022-11-22T20:58:54.524Z,8.35
2022-11-22T21:01:24.096Z,6.75
2022-11-22T21:03:52.963Z,7.97
2022-11-22T21:06:23.905Z,8.15
2022-11-22T21:08:52.138Z,8.00
2022-11-22T21:11:22.205Z,9.43
2022-11-22T21:13:51.022Z,13.50
2022-11-22T21:16:24.212Z,8.00
2022-11-22T21:18:53.475Z,8.23
2022-11-22T21:21:24.036Z,9.10
2022-11-22T21:23:53.451Z,8.77
2022-11-22T21:26:22.025Z,7.18
2022-11-22T21:28:50.492Z,7.68
2022-11-22T21:31:19.065Z,5.70
2022-11-22T21:33:47.367Z,6.60
2022-11-22T21:36:15.349Z,6.68
2022-11-22T21:38:44.666Z,7.22
2022-11-22T21:44:03.130Z,5.32
2022-11-22T21:46:31.041Z,7.15
2022-11-22T21:48:59.176Z,4.80
2022-11-22T21:51:27.310Z,10.63
2022-11-22T21:53:59.057Z,4.20
2022-11-22T21:56:27.392Z,5.50
2022-11-22T21:58:55.704Z,4.97
2022-11-22T22:01:24.596Z,5.78
2022-11-22T22:03:52.924Z,6.47
2022-11-22T22:06:20.993Z,4.38
2022-11-22T22:08:49.044Z,4.15
2022-11-22T22:11:18.367Z,4.85
2022-11-22T22:13:46.367Z,9.48
2022-11-22T22:16:19.040Z,9.07
2022-11-22T22:18:47.677Z,6.20
2022-11-22T22:21:16.390Z,8.07
2022-11-22T22:23:45.299Z,4.20
2022-11-22T22:26:16.170Z,8.93
2022-11-22T22:28:46.091Z,5.60
2022-11-22T22:31:16.825Z,4.30
2022-11-22T22:33:46.505Z,4.80
2022-11-22T22:36:15.192Z,5.38
2022-11-22T22:38:43.135Z,5.25
2022-11-22T22:41:12.509Z,8.70
2022-11-22T22:43:42.385Z,5.65
2022-11-22T22:46:14.657Z,5.30
2022-11-22T22:48:43.624Z,5.70
2022-11-22T22:51:13.910Z,4.00
2022-11-22T22:53:42.573Z,6.72
2022-11-22T22:56:11.820Z,5.45
2022-11-22T22:58:39.919Z,4.50
2022-11-22T23:01:09.315Z,7.57
2022-11-22T23:04:06.655Z,4.82
2022-11-22T23:06:36.507Z,6.38
2022-11-22T23:09:06.193Z,6.93
2022-11-22T23:11:52.498Z,5.40
2022-11-22T23:14:22.633Z,5.85
2022-11-22T23:16:55.995Z,5.90
2022-11-22T23:19:27.609Z,6.90
2022-11-22T23:21:56.042Z,3.85
2022-11-22T23:24:24.004Z,6.43
2022-11-22T23:26:51.985Z,4.00
2022-11-22T23:29:19.881Z,4.63
2022-11-22T23:31:47.794Z,5.68
2022-11-22T23:34:15.917Z,8.23
2022-11-22T23:36:45.409Z,5.85
2022-11-22T23:39:13.365Z,4.57
2022-11-22T23:41:41.356Z,5.45
2022-11-22T23:44:09.668Z,5.53
2022-11-22T23:46:37.654Z,6.47
2022-11-22T23:49:07.135Z,4.43
2022-11-22T23:51:36.985Z,4.97
2022-11-22T23:54:07.146Z,7.03
2022-11-22T23:56:37.093Z,4.88
2022-11-22T23:59:06.042Z,4.28
